Time;durP1;ratioP1;P1;durP2;ratioP2;P2;SDS_P1;SDS_P2;PMS_P1;PMS_P2;Temp;Humidity;BMP_temperature;BMP_pressure;BME280_temperature;BME280_humidity;BME280_pressure;Samples;Min_cycle;Max_cycle;Signal;HPM_P1;HPM_P2
2024/01/26 00:00:09;;;;;;;37.10;21.97;;;7.30;99.90;;;;;;5095245;28;20859;-76
2024/01/26 00:02:41;;;;;;;42.70;23.73;;;7.30;99.90;;;;;;5096153;28;20462;-77
2024/01/26 00:05:10;;;;;;;35.23;23.07;;;7.30;99.90;;;;;;5096459;28;20521;-77
2024/01/26 00:07:38;;;;;;;40.57;23.13;;;7.20;99.90;;;;;;5097361;28;20474;-77
2024/01/26 00:10:07;;;;;;;45.40;25.13;;;7.30;99.90;;;;;;5098139;28;20957;-77
2024/01/26 00:12:36;;;;;;;38.70;24.90;;;7.30;99.90;;;;;;5097524;28;20454;-76
2024/01/26 00:15:05;;;;;;;40.30;25.70;;;7.30;99.90;;;;;;5097373;28;20545;-77
2024/01/26 00:17:33;;;;;;;41.60;26.97;;;7.30;99.90;;;;;;5096928;28;20452;-77
2024/01/26 00:20:05;;;;;;;45.07;25.70;;;7.30;99.90;;;;;;5096799;28;20451;-76
2024/01/26 00:22:33;;;;;;;42.00;25.80;;;7.30;99.90;;;;;;5098493;28;20532;-76
2024/01/26 00:25:02;;;;;;;55.40;28.57;;;7.30;99.90;;;;;;5094246;28;20499;-77
2024/01/26 00:27:30;;;;;;;41.97;26.87;;;7.40;99.90;;;;;;5094408;28;20448;-77
2024/01/26 00:29:58;;;;;;;45.47;28.73;;;7.40;99.90;;;;;;5095535;28;20435;-77
2024/01/26 00:32:26;;;;;;;45.00;26.90;;;7.40;99.90;;;;;;5095526;28;20475;-77
2024/01/26 00:34:55;;;;;;;42.47;27.50;;;7.40;99.90;;;;;;5094029;28;20440;-77
2024/01/26 00:37:24;;;;;;;44.90;26.87;;;7.40;99.90;;;;;;5095280;28;20471;-77
2024/01/26 00:39:53;;;;;;;41.03;27.80;;;7.40;99.90;;;;;;5095513;28;20436;-77
2024/01/26 00:42:21;;;;;;;41.90;27.93;;;7.40;99.90;;;;;;5093864;28;20478;-77
2024/01/26 00:44:49;;;;;;;36.93;27.60;;;7.50;99.90;;;;;;5093815;28;20539;-77
2024/01/26 00:47:18;;;;;;;37.13;26.43;;;7.50;99.90;;;;;;5093706;28;20444;-77
2024/01/26 00:49:47;;;;;;;43.87;28.53;;;7.50;99.90;;;;;;5094952;28;20541;-77
2024/01/26 00:52:20;;;;;;;44.73;28.27;;;7.50;99.90;;;;;;5093669;28;20517;-76
2024/01/26 00:54:50;;;;;;;45.40;28.77;;;7.50;99.90;;;;;;5094859;28;20528;-77
2024/01/26 00:57:18;;;;;;;39.77;28.67;;;7.50;99.90;;;;;;5092659;28;20455;-77
2024/01/26 00:59:45;;;;;;;43.80;29.23;;;7.50;99.90;;;;;;5095125;28;20444;-77
2024/01/26 01:02:13;;;;;;;42.47;27.90;;;7.50;99.90;;;;;;5094921;28;20525;-77
2024/01/26 01:04:42;;;;;;;37.80;28.20;;;7.50;99.90;;;;;;5094755;28;20522;-77
2024/01/26 01:07:10;;;;;;;44.70;29.67;;;7.50;99.90;;;;;;5094945;28;20447;-77
2024/01/26 01:09:40;;;;;;;44.90;31.10;;;7.50;99.90;;;;;;5093418;28;20531;-77
2024/01/26 01:12:10;;;;;;;39.47;28.63;;;7.60;99.90;;;;;;5094782;28;20447;-77
2024/01/26 01:14:40;;;;;;;41.50;30.10;;;7.60;99.90;;;;;;5093567;28;20838;-77
2024/01/26 01:17:11;;;;;;;39.27;31.00;;;7.60;99.90;;;;;;5093771;28;20497;-77
2024/01/26 01:19:39;;;;;;;43.00;29.47;;;7.60;99.90;;;;;;5094670;28;20481;-77
2024/01/26 01:22:07;;;;;;;38.27;29.70;;;7.60;99.90;;;;;;5092975;28;20597;-77
2024/01/26 01:24:36;;;;;;;50.43;29.33;;;7.60;99.90;;;;;;5093053;28;20452;-77
2024/01/26 01:27:05;;;;;;;41.63;30.30;;;7.60;99.90;;;;;;5092980;28;20451;-77
2024/01/26 01:29:35;;;;;;;45.10;28.50;;;7.60;99.90;;;;;;5093001;28;20861;-77
2024/01/26 01:32:04;;;;;;;39.30;29.37;;;7.60;99.90;;;;;;5094469;28;20459;-77
2024/01/26 01:34:32;;;;;;;40.93;31.23;;;7.70;99.90;;;;;;5094141;28;20434;-77
2024/01/26 01:37:00;;;;;;;38.40;30.50;;;7.70;99.90;;;;;;5094075;28;20938;-77
2024/01/26 01:39:28;;;;;;;41.93;30.63;;;7.60;99.90;;;;;;5092854;28;20535;-77
2024/01/26 01:41:56;;;;;;;38.87;29.80;;;7.70;99.90;;;;;;5092687;28;20475;-76
2024/01/26 01:44:25;;;;;;;38.17;29.90;;;7.70;99.90;;;;;;5092767;28;20943;-77
2024/01/26 01:46:54;;;;;;;49.00;34.43;;;7.70;99.90;;;;;;5092675;28;20466;-77
2024/01/26 01:49:24;;;;;;;40.87;30.53;;;7.70;99.90;;;;;;5094495;28;20428;-76
2024/01/26 01:51:55;;;;;;;46.70;31.77;;;7.70;99.90;;;;;;5093286;28;20452;-76
2024/01/26 01:54:25;;;;;;;38.73;31.30;;;7.80;99.90;;;;;;5094279;28;20486;-77
2024/01/26 01:56:54;;;;;;;43.07;31.40;;;7.80;99.90;;;;;;5094471;28;21020;-77
2024/01/26 01:59:22;;;;;;;41.23;32.37;;;7.80;99.90;;;;;;5094143;28;21031;-77
2024/01/26 02:01:51;;;;;;;47.50;31.50;;;7.80;99.90;;;;;;5093304;28;20464;-77
2024/01/26 02:04:20;;;;;;;48.00;32.80;;;7.80;99.90;;;;;;5094028;28;20446;-76
2024/01/26 02:06:55;;;;;;;38.87;30.03;;;7.80;99.90;;;;;;5094433;28;20834;-76
2024/01/26 02:09:23;;;;;;;52.50;32.87;;;7.80;99.90;;;;;;5096013;28;20442;-76
2024/01/26 02:11:52;;;;;;;42.77;32.23;;;7.80;99.90;;;;;;5094342;28;20472;-77
2024/01/26 02:14:21;;;;;;;35.50;25.97;;;7.80;99.90;;;;;;5096006;28;20436;-77
2024/01/26 02:16:56;;;;;;;46.83;33.77;;;7.90;99.90;;;;;;5094905;28;20444;-77
2024/01/26 02:19:27;;;;;;;47.03;33.70;;;7.90;99.90;;;;;;5093734;28;20431;-77
2024/01/26 02:21:55;;;;;;;47.63;34.37;;;7.90;99.90;;;;;;5094018;28;20460;-77
2024/01/26 02:24:25;;;;;;;42.80;34.10;;;7.90;99.90;;;;;;5096421;28;20430;-77
2024/01/26 02:26:53;;;;;;;47.23;34.77;;;7.90;99.90;;;;;;5094547;28;20452;-77
2024/01/26 02:29:21;;;;;;;46.97;33.97;;;7.90;99.90;;;;;;5093595;28;20446;-76
2024/01/26 02:31:50;;;;;;;45.43;34.37;;;7.90;99.90;;;;;;5093685;28;20546;-76
2024/01/26 02:34:18;;;;;;;45.60;33.70;;;7.90;99.90;;;;;;5094145;28;20970;-77
2024/01/26 02:36:46;;;;;;;42.87;33.40;;;8.00;99.90;;;;;;5092881;28;20444;-77
2024/01/26 02:39:15;;;;;;;46.53;35.80;;;8.00;99.90;;;;;;5092785;28;20979;-76
2024/01/26 02:41:45;;;;;;;45.57;32.90;;;8.00;99.90;;;;;;5092112;28;20460;-76
2024/01/26 02:44:13;;;;;;;47.43;34.10;;;8.00;99.90;;;;;;5093070;28;20501;-77
2024/01/26 02:46:41;;;;;;;41.67;32.50;;;8.00;99.90;;;;;;5094723;28;20443;-77
2024/01/26 02:49:10;;;;;;;48.53;35.50;;;8.00;99.90;;;;;;5095209;28;20917;-77
2024/01/26 02:51:38;;;;;;;44.60;33.63;;;8.10;99.90;;;;;;5095592;28;20552;-77
2024/01/26 02:54:06;;;;;;;45.10;33.87;;;8.10;99.90;;;;;;5095135;28;20538;-77
2024/01/26 02:56:35;;;;;;;46.77;34.40;;;8.10;99.90;;;;;;5094754;28;20451;-77
2024/01/26 02:59:04;;;;;;;44.00;35.43;;;8.10;99.90;;;;;;5095243;28;20432;-77
2024/01/26 03:01:33;;;;;;;43.50;33.73;;;8.10;99.90;;;;;;5096767;28;20972;-77
2024/01/26 03:04:01;;;;;;;44.97;35.37;;;8.10;99.90;;;;;;5091949;28;20525;-76
2024/01/26 03:06:29;;;;;;;44.00;35.43;;;8.20;99.90;;;;;;5093310;28;20445;-77
2024/01/26 03:08:57;;;;;;;47.97;36.50;;;8.20;99.90;;;;;;5091699;28;20444;-77
2024/01/26 03:11:37;;;;;;;46.83;34.97;;;8.20;99.90;;;;;;5093416;28;20439;-77
2024/01/26 03:14:08;;;;;;;43.20;34.17;;;8.20;99.90;;;;;;5091762;28;20802;-76
2024/01/26 03:16:39;;;;;;;50.47;37.00;;;8.20;99.90;;;;;;5092904;28;20429;-77
2024/01/26 03:19:08;;;;;;;42.67;34.47;;;8.20;99.90;;;;;;5093760;28;20435;-76
2024/01/26 03:21:42;;;;;;;45.33;35.47;;;8.30;99.90;;;;;;5096772;28;20431;-77
2024/01/26 03:24:11;;;;;;;45.03;35.00;;;8.30;99.90;;;;;;5096753;28;20460;-76
2024/01/26 03:26:40;;;;;;;45.90;36.63;;;8.30;99.90;;;;;;5095436;28;20811;-77
2024/01/26 03:29:09;;;;;;;48.83;36.63;;;8.30;99.90;;;;;;5095784;28;20456;-77
2024/01/26 03:31:37;;;;;;;46.33;36.30;;;8.30;99.90;;;;;;5098907;28;20439;-77
2024/01/26 03:34:06;;;;;;;47.20;35.10;;;8.40;99.90;;;;;;5099005;28;20436;-76
2024/01/26 03:36:34;;;;;;;46.17;34.93;;;8.40;99.90;;;;;;5096564;28;20448;-76
2024/01/26 03:39:03;;;;;;;46.27;34.73;;;8.40;99.90;;;;;;5096916;28;20489;-77
2024/01/26 03:41:32;;;;;;;48.20;37.83;;;8.40;99.90;;;;;;5095788;28;20848;-77
2024/01/26 03:44:00;;;;;;;46.27;35.47;;;8.40;99.90;;;;;;5096273;28;20471;-77
2024/01/26 03:46:30;;;;;;;48.43;36.27;;;8.50;99.90;;;;;;5098911;28;20447;-77
2024/01/26 03:48:59;;;;;;;45.33;34.40;;;8.50;99.90;;;;;;5097662;28;20425;-77
2024/01/26 03:51:27;;;;;;;47.23;36.67;;;8.50;99.90;;;;;;5095244;28;20447;-77
2024/01/26 03:53:55;;;;;;;46.10;35.50;;;8.50;99.90;;;;;;5096304;28;20452;-77
2024/01/26 03:56:24;;;;;;;43.33;34.83;;;8.50;99.90;;;;;;5095111;28;20506;-77
2024/01/26 03:58:53;;;;;;;44.90;36.73;;;8.50;99.90;;;;;;5096208;28;20851;-77
2024/01/26 04:01:21;;;;;;;44.70;33.80;;;8.50;99.90;;;;;;5095018;28;20999;-77
2024/01/26 04:03:51;;;;;;;46.13;35.23;;;8.50;99.90;;;;;;5094718;28;20475;-77
2024/01/26 04:06:19;;;;;;;39.40;33.87;;;8.60;99.90;;;;;;5094856;28;20543;-76
2024/01/26 04:08:48;;;;;;;44.40;35.57;;;8.60;99.90;;;;;;5095998;28;20806;-77
2024/01/26 04:11:16;;;;;;;40.77;33.50;;;8.60;99.90;;;;;;5094862;28;20798;-77
2024/01/26 04:13:44;;;;;;;43.63;35.63;;;8.60;99.90;;;;;;5094623;28;21023;-77
2024/01/26 04:16:13;;;;;;;40.60;33.87;;;8.60;99.90;;;;;;5094563;28;20534;-76
2024/01/26 04:18:42;;;;;;;46.70;36.50;;;8.60;99.90;;;;;;5095903;28;20447;-77
2024/01/26 04:21:12;;;;;;;49.10;37.40;;;8.60;99.90;;;;;;5094529;28;20535;-77
2024/01/26 04:23:41;;;;;;;42.53;34.43;;;8.70;99.90;;;;;;5094398;28;20570;-76
2024/01/26 04:26:09;;;;;;;46.67;37.53;;;8.70;99.90;;;;;;5094510;28;20503;-77
2024/01/26 04:28:38;;;;;;;47.90;37.97;;;8.70;99.90;;;;;;5094456;28;20537;-77
2024/01/26 04:31:06;;;;;;;50.37;39.30;;;8.70;99.90;;;;;;5094473;28;20972;-77
2024/01/26 04:33:34;;;;;;;48.13;37.37;;;8.70;99.90;;;;;;5094263;28;20475;-77
2024/01/26 04:36:02;;;;;;;46.73;35.67;;;8.70;99.90;;;;;;5095629;28;20960;-77
2024/01/26 04:38:32;;;;;;;50.07;37.67;;;8.70;99.90;;;;;;5095490;28;20455;-76
2024/01/26 04:41:00;;;;;;;50.33;38.67;;;8.80;99.90;;;;;;5094769;28;20447;-77
2024/01/26 04:43:29;;;;;;;48.27;36.80;;;8.80;99.90;;;;;;5094091;28;20503;-77
2024/01/26 04:45:57;;;;;;;51.37;38.97;;;8.80;99.90;;;;;;5094126;28;20448;-77
2024/01/26 04:48:26;;;;;;;49.07;37.80;;;8.80;99.90;;;;;;5094234;28;20523;-77
2024/01/26 04:50:54;;;;;;;48.77;39.63;;;8.80;99.90;;;;;;5096580;28;20458;-77
2024/01/26 04:53:22;;;;;;;43.47;35.20;;;8.90;99.90;;;;;;5094678;28;20457;-77
2024/01/26 04:55:53;;;;;;;50.90;40.67;;;8.90;99.90;;;;;;5093959;28;20480;-76
2024/01/26 04:58:22;;;;;;;49.67;38.30;;;8.90;99.90;;;;;;5095530;28;20439;-77
2024/01/26 05:00:50;;;;;;;48.87;38.50;;;8.90;99.90;;;;;;5095081;28;20848;-77
2024/01/26 05:03:18;;;;;;;48.40;38.07;;;8.90;99.90;;;;;;5093553;28;20472;-77
2024/01/26 05:05:46;;;;;;;46.00;37.43;;;8.90;99.90;;;;;;5095696;28;20453;-77
2024/01/26 05:08:15;;;;;;;45.97;37.53;;;8.90;99.90;;;;;;5093688;28;20451;-77
2024/01/26 05:10:43;;;;;;;49.50;37.97;;;9.00;99.90;;;;;;5093540;28;20441;-76
2024/01/26 05:13:12;;;;;;;48.40;39.40;;;9.00;99.90;;;;;;5094497;28;20499;-77
2024/01/26 05:15:41;;;;;;;47.13;37.17;;;9.00;99.90;;;;;;5095962;28;20444;-77
2024/01/26 05:18:09;;;;;;;45.73;37.50;;;9.00;99.90;;;;;;5096335;28;20522;-76
2024/01/26 05:20:38;;;;;;;43.97;37.37;;;9.10;99.90;;;;;;5095233;28;20525;-77
2024/01/26 05:23:06;;;;;;;45.53;36.87;;;9.10;99.90;;;;;;5097716;28;20490;-77
2024/01/26 05:25:34;;;;;;;50.33;38.47;;;9.10;99.90;;;;;;5096191;28;20445;-77
2024/01/26 05:28:02;;;;;;;47.53;37.20;;;9.10;99.90;;;;;;5096724;28;20436;-78
2024/01/26 05:30:32;;;;;;;46.00;36.33;;;9.20;99.90;;;;;;5095549;28;20462;-77
2024/01/26 05:33:01;;;;;;;45.90;37.27;;;9.20;99.90;;;;;;5097995;28;20448;-77
2024/01/26 05:35:30;;;;;;;45.00;37.80;;;9.20;99.90;;;;;;5097756;28;20493;-77
2024/01/26 05:37:58;;;;;;;40.63;35.50;;;9.20;99.90;;;;;;5094638;28;20456;-76
2024/01/26 05:40:26;;;;;;;41.43;34.17;;;9.20;99.90;;;;;;5094242;28;20446;-77
2024/01/26 05:42:54;;;;;;;42.87;37.27;;;9.30;99.90;;;;;;5095070;28;20468;-75
2024/01/26 05:45:23;;;;;;;40.67;35.63;;;9.30;99.90;;;;;;5094265;28;20496;-77
2024/01/26 05:47:52;;;;;;;41.23;35.07;;;9.30;99.90;;;;;;5095768;28;20530;-77
2024/01/26 05:50:21;;;;;;;41.63;35.13;;;9.30;99.90;;;;;;5094851;28;20475;-76
2024/01/26 05:52:49;;;;;;;40.50;35.40;;;9.30;99.90;;;;;;5093194;28;20479;-77
2024/01/26 05:55:18;;;;;;;42.77;34.77;;;9.40;99.90;;;;;;5095909;28;20433;-77
2024/01/26 05:57:46;;;;;;;38.70;34.50;;;9.40;99.90;;;;;;5095596;28;20992;-77
2024/01/26 06:00:15;;;;;;;40.73;35.87;;;9.40;99.90;;;;;;5096074;28;20862;-76
2024/01/26 06:02:46;;;;;;;37.73;33.40;;;9.40;99.90;;;;;;5094673;28;20474;-77
2024/01/26 06:05:16;;;;;;;40.03;34.90;;;9.40;99.90;;;;;;5094488;28;20464;-77
2024/01/26 06:07:44;;;;;;;41.20;35.90;;;9.50;99.90;;;;;;5094001;28;20917;-77
2024/01/26 06:10:12;;;;;;;40.23;35.57;;;9.50;99.90;;;;;;5092633;28;20450;-76
2024/01/26 06:12:41;;;;;;;39.73;35.50;;;9.50;99.90;;;;;;5094397;28;20483;-77
2024/01/26 06:15:10;;;;;;;40.60;34.20;;;9.50;99.90;;;;;;5094413;28;20432;-76
2024/01/26 06:17:39;;;;;;;40.33;35.20;;;9.60;99.90;;;;;;5092685;28;20451;-77
2024/01/26 06:20:08;;;;;;;36.47;32.67;;;9.60;99.90;;;;;;5095003;28;20452;-78
2024/01/26 06:22:38;;;;;;;36.63;32.67;;;9.60;99.90;;;;;;5096478;28;20456;-77
2024/01/26 06:25:06;;;;;;;36.30;32.27;;;9.60;99.90;;;;;;5095782;28;20521;-78
2024/01/26 06:27:34;;;;;;;35.23;31.53;;;9.60;99.90;;;;;;5094172;28;20440;-76
2024/01/26 06:30:03;;;;;;;35.03;31.33;;;9.60;99.90;;;;;;5094158;28;20929;-77
2024/01/26 06:32:32;;;;;;;35.50;31.07;;;9.70;99.90;;;;;;5094401;28;20539;-77
2024/01/26 06:35:00;;;;;;;34.30;30.60;;;9.70;99.90;;;;;;5092572;28;20451;-77
2024/01/26 06:37:28;;;;;;;36.07;32.17;;;9.70;99.90;;;;;;5093854;28;20936;-77
2024/01/26 06:39:58;;;;;;;33.40;30.00;;;9.70;99.90;;;;;;5092673;28;20507;-77
2024/01/26 06:42:27;;;;;;;35.40;31.80;;;9.70;99.90;;;;;;5093943;28;20492;-77
2024/01/26 06:44:55;;;;;;;33.00;29.53;;;9.70;99.90;;;;;;5094220;28;21060;-77
2024/01/26 06:47:23;;;;;;;33.23;29.73;;;9.80;99.90;;;;;;5094107;28;20447;-77
2024/01/26 06:49:52;;;;;;;33.23;30.03;;;9.80;99.90;;;;;;5092730;28;20859;-77
2024/01/26 06:52:20;;;;;;;33.33;29.87;;;9.80;99.90;;;;;;5092381;28;20458;-77
2024/01/26 06:54:48;;;;;;;31.90;28.60;;;9.80;99.90;;;;;;5095600;28;20448;-76
2024/01/26 06:57:18;;;;;;;30.07;26.87;;;9.80;99.90;;;;;;5098107;28;20501;-76
2024/01/26 06:59:46;;;;;;;30.17;26.90;;;9.80;99.90;;;;;;5097873;28;20447;-77
2024/01/26 07:02:14;;;;;;;28.80;25.80;;;9.90;99.90;;;;;;5096563;28;20468;-76
2024/01/26 07:04:43;;;;;;;29.17;26.33;;;9.90;99.90;;;;;;5097115;28;20494;-77
2024/01/26 07:07:11;;;;;;;28.37;25.47;;;9.90;99.90;;;;;;5097608;28;20472;-76
2024/01/26 07:09:40;;;;;;;27.90;24.93;;;9.90;99.90;;;;;;5097903;28;20428;-78
2024/01/26 07:12:08;;;;;;;28.33;25.63;;;9.90;99.90;;;;;;5098336;28;20460;-77
2024/01/26 07:14:38;;;;;;;27.20;24.50;;;10.00;99.90;;;;;;5096151;28;20535;-77
2024/01/26 07:17:06;;;;;;;27.30;24.50;;;10.00;99.90;;;;;;5098278;28;20951;-77
2024/01/26 07:19:35;;;;;;;27.93;24.93;;;10.00;99.90;;;;;;5099900;28;20441;-77
2024/01/26 07:22:05;;;;;;;26.33;23.73;;;10.00;99.90;;;;;;5097937;28;20990;-77
2024/01/26 07:24:33;;;;;;;25.77;23.07;;;10.00;99.90;;;;;;5098698;28;20502;-77
2024/01/26 07:27:01;;;;;;;25.23;22.80;;;10.10;99.90;;;;;;5099666;28;20464;-78
2024/01/26 07:29:29;;;;;;;25.10;22.50;;;10.10;99.90;;;;;;5100035;28;20440;-78
2024/01/26 07:31:59;;;;;;;25.30;22.77;;;10.10;99.90;;;;;;5097916;28;20539;-77
2024/01/26 07:34:27;;;;;;;26.40;23.70;;;10.10;99.90;;;;;;5095655;28;20448;-77
2024/01/26 07:36:59;;;;;;;25.10;22.63;;;10.10;99.90;;;;;;5097311;28;20831;-78
2024/01/26 07:39:27;;;;;;;25.47;22.83;;;10.20;99.90;;;;;;5099674;28;20440;-78
2024/01/26 07:41:56;;;;;;;25.40;22.80;;;10.20;99.90;;;;;;5099191;28;20438;-76
2024/01/26 07:44:24;;;;;;;24.87;22.27;;;10.20;99.90;;;;;;5096684;28;20448;-78
2024/01/26 07:46:52;;;;;;;22.33;20.03;;;10.20;99.90;;;;;;5097347;28;20472;-76
2024/01/26 07:49:22;;;;;;;25.00;22.60;;;10.20;99.90;;;;;;5094550;28;20444;-76
2024/01/26 07:51:50;;;;;;;24.30;21.90;;;10.30;99.90;;;;;;5094806;28;20521;-78
2024/01/26 07:54:18;;;;;;;22.13;19.93;;;10.30;99.90;;;;;;5094883;28;20448;-77
2024/01/26 07:56:47;;;;;;;23.03;20.77;;;10.30;99.90;;;;;;5095686;28;20428;-77
2024/01/26 07:59:15;;;;;;;23.20;21.07;;;10.30;99.90;;;;;;5095724;28;20853;-77
2024/01/26 08:01:43;;;;;;;24.30;21.80;;;10.30;99.90;;;;;;5095962;28;20753;-77
2024/01/26 08:04:12;;;;;;;24.10;21.80;;;10.30;99.90;;;;;;5095333;28;20436;-77
2024/01/26 08:06:42;;;;;;;21.80;19.57;;;10.30;99.90;;;;;;5094729;28;20460;-77
2024/01/26 08:09:10;;;;;;;26.13;23.43;;;10.30;99.90;;;;;;5095062;28;20442;-76
2024/01/26 08:11:39;;;;;;;24.43;22.03;;;10.30;99.90;;;;;;5093633;28;20471;-78
2024/01/26 08:14:07;;;;;;;23.37;21.17;;;10.30;99.90;;;;;;5093914;28;20489;-77
2024/01/26 08:16:37;;;;;;;21.90;19.70;;;10.30;99.90;;;;;;5094833;28;20432;-77
2024/01/26 08:19:05;;;;;;;22.10;19.90;;;10.40;99.90;;;;;;5094762;28;20440;-77
2024/01/26 08:21:34;;;;;;;23.03;20.83;;;10.40;99.90;;;;;;5094897;28;20494;-77
2024/01/26 08:24:04;;;;;;;20.60;18.70;;;10.30;99.90;;;;;;5094194;28;20460;-77
2024/01/26 08:26:32;;;;;;;23.30;20.93;;;10.40;99.90;;;;;;5094117;28;20495;-76
2024/01/26 08:29:01;;;;;;;24.60;22.20;;;10.40;99.90;;;;;;5093733;28;20444;-76
2024/01/26 08:31:29;;;;;;;23.33;20.83;;;10.40;99.90;;;;;;5094653;28;20432;-74
2024/01/26 08:33:57;;;;;;;23.67;21.27;;;10.40;99.90;;;;;;5093877;28;20464;-77
2024/01/26 08:36:26;;;;;;;25.27;22.60;;;10.40;99.90;;;;;;5094951;28;20428;-76
2024/01/26 08:38:56;;;;;;;25.50;23.00;;;10.40;99.90;;;;;;5095476;28;20432;-77
2024/01/26 08:41:26;;;;;;;24.93;22.60;;;10.40;99.90;;;;;;5093575;28;20972;-78
2024/01/26 08:43:54;;;;;;;25.97;23.47;;;10.40;99.90;;;;;;5094660;28;20459;-75
2024/01/26 08:46:23;;;;;;;26.90;24.40;;;10.40;99.90;;;;;;5054059;28;1149541;-77
2024/01/26 08:48:51;;;;;;;27.00;24.40;;;10.40;99.90;;;;;;5094333;28;20444;-76
2024/01/26 08:51:19;;;;;;;28.83;26.17;;;10.40;99.90;;;;;;5094237;28;20482;-75
2024/01/26 08:53:48;;;;;;;29.83;26.83;;;10.40;99.90;;;;;;5094424;28;20465;-76
2024/01/26 08:56:16;;;;;;;29.67;26.87;;;10.50;99.90;;;;;;5094322;28;20436;-77
2024/01/26 08:58:45;;;;;;;30.63;27.73;;;10.50;99.90;;;;;;5095544;28;20440;-76
2024/01/26 09:01:14;;;;;;;30.93;27.83;;;10.50;99.90;;;;;;5095451;28;20436;-76
2024/01/26 09:03:42;;;;;;;32.13;29.10;;;10.50;99.90;;;;;;5094373;28;20467;-76
2024/01/26 09:06:10;;;;;;;32.37;29.27;;;10.50;99.90;;;;;;5094903;28;20468;-76
2024/01/26 09:08:39;;;;;;;32.50;29.40;;;10.50;99.90;;;;;;5093755;28;20436;-77
2024/01/26 09:11:07;;;;;;;31.50;28.50;;;10.50;99.90;;;;;;5094931;28;20444;-77
2024/01/26 09:13:35;;;;;;;31.80;28.70;;;10.50;99.90;;;;;;5096099;28;20539;-75
2024/01/26 09:16:05;;;;;;;31.27;28.30;;;10.50;99.90;;;;;;5095126;28;20905;-75
2024/01/26 09:18:33;;;;;;;31.70;28.73;;;10.50;99.90;;;;;;5092999;28;20451;-76
2024/01/26 09:21:11;;;;;;;31.97;28.87;;;10.50;99.90;;;;;;5093811;28;20475;-77
2024/01/26 09:23:43;;;;;;;29.53;26.70;;;10.50;99.90;;;;;;5095524;28;20459;-76
2024/01/26 09:26:12;;;;;;;31.53;28.63;;;10.50;99.90;;;;;;5093295;28;20464;-76
2024/01/26 09:28:40;;;;;;;29.20;26.40;;;10.50;99.90;;;;;;5093252;28;20444;-76
2024/01/26 09:31:09;;;;;;;30.80;27.70;;;10.60;99.90;;;;;;5094713;28;20592;-76
2024/01/26 09:33:38;;;;;;;27.97;25.37;;;10.60;99.90;;;;;;5093748;28;20502;-77
2024/01/26 09:36:07;;;;;;;28.77;25.97;;;10.60;99.90;;;;;;5094415;28;20881;-74
2024/01/26 09:38:35;;;;;;;26.63;24.10;;;10.60;99.90;;;;;;5093089;28;20531;-76
2024/01/26 09:41:03;;;;;;;26.20;23.80;;;10.60;99.90;;;;;;5094986;28;20432;-77
2024/01/26 09:43:32;;;;;;;26.37;23.77;;;10.60;99.90;;;;;;5094060;28;20514;-77
2024/01/26 09:46:00;;;;;;;23.80;21.70;;;10.60;99.90;;;;;;5094740;28;20474;-77
2024/01/26 09:48:31;;;;;;;23.63;21.43;;;10.60;99.90;;;;;;5094710;28;20456;-76
2024/01/26 09:50:59;;;;;;;23.77;21.57;;;10.60;99.90;;;;;;5095212;28;20427;-75
2024/01/26 09:53:30;;;;;;;23.57;21.37;;;10.60;99.90;;;;;;5093574;28;20460;-77
2024/01/26 09:56:00;;;;;;;20.90;18.90;;;10.60;99.90;;;;;;5099080;28;20889;-77
2024/01/26 09:58:29;;;;;;;19.47;17.77;;;10.60;99.90;;;;;;5097154;28;20798;-77
2024/01/26 10:00:57;;;;;;;19.90;17.90;;;10.70;99.90;;;;;;5094990;28;20490;-76
2024/01/26 10:03:27;;;;;;;19.60;17.90;;;10.70;99.90;;;;;;5095778;28;20460;-76
2024/01/26 10:06:03;;;;;;;16.27;14.67;;;10.70;99.90;;;;;;5095204;28;20554;-76
2024/01/26 10:08:38;;;;;;;15.57;14.17;;;10.70;99.90;;;;;;5093376;28;20519;-76
2024/01/26 10:11:07;;;;;;;14.27;12.97;;;10.80;99.90;;;;;;5094631;28;20420;-76
2024/01/26 10:13:35;;;;;;;13.67;12.37;;;10.70;99.90;;;;;;5094055;28;21030;-75
2024/01/26 10:16:08;;;;;;;11.73;10.73;;;10.80;99.90;;;;;;5094335;28;20497;-76
2024/01/26 10:18:42;;;;;;;11.60;10.60;;;10.80;99.90;;;;;;5094347;28;20428;-76
2024/01/26 10:21:12;;;;;;;12.20;11.20;;;10.80;99.90;;;;;;5092875;28;20815;-76
2024/01/26 10:23:41;;;;;;;11.10;10.20;;;10.90;99.90;;;;;;5092785;28;20495;-76
2024/01/26 10:26:10;;;;;;;10.77;9.87;;;10.90;99.90;;;;;;5093817;28;20470;-77
2024/01/26 10:28:39;;;;;;;10.20;9.20;;;10.90;99.90;;;;;;5094099;28;20440;-76
2024/01/26 10:31:08;;;;;;;10.33;9.33;;;10.90;99.90;;;;;;5094049;28;20468;-76
2024/01/26 10:33:40;;;;;;;8.80;8.00;;;10.90;99.90;;;;;;5093812;28;20486;-76
2024/01/26 10:36:14;;;;;;;8.47;7.77;;;11.00;99.90;;;;;;5093800;28;20428;-76
2024/01/26 10:38:43;;;;;;;7.80;7.10;;;11.00;99.90;;;;;;5092481;28;20921;-77
2024/01/26 10:41:20;;;;;;;8.77;7.97;;;11.00;99.90;;;;;;5092272;28;20483;-76
2024/01/26 10:43:52;;;;;;;8.13;7.40;;;11.00;99.90;;;;;;5093583;28;20452;-76
2024/01/26 10:46:22;;;;;;;8.60;7.90;;;11.10;99.90;;;;;;5091961;28;20550;-77
2024/01/26 10:48:52;;;;;;;8.00;7.30;;;11.10;99.90;;;;;;5092442;28;20531;-77
2024/01/26 10:51:25;;;;;;;8.37;7.70;;;11.10;99.90;;;;;;5092215;28;20440;-76
2024/01/26 10:53:55;;;;;;;8.50;7.80;;;11.10;99.90;;;;;;5093315;28;20509;-76
2024/01/26 10:56:24;;;;;;;7.50;6.90;;;11.10;99.90;;;;;;5093304;28;20475;-76
2024/01/26 10:58:52;;;;;;;5.77;5.27;;;11.10;99.90;;;;;;5094546;28;20478;-78
2024/01/26 11:01:20;;;;;;;3.30;2.37;;;11.10;99.90;;;;;;5095043;28;20444;-80
2024/01/26 11:03:49;;;;;;;3.27;1.50;;;11.10;99.90;;;;;;5092570;28;20514;-78
2024/01/26 11:06:18;;;;;;;2.00;1.40;;;11.00;99.90;;;;;;5092222;28;20548;-77
2024/01/26 11:08:48;;;;;;;3.77;1.20;;;10.90;99.90;;;;;;5092130;28;20440;-77
2024/01/26 11:11:23;;;;;;;2.77;1.10;;;10.80;99.90;;;;;;5093382;28;20930;-77
2024/01/26 11:13:53;;;;;;;1.80;1.00;;;10.70;99.90;;;;;;5093339;28;20458;-78
2024/01/26 11:16:25;;;;;;;2.73;1.00;;;10.60;99.90;;;;;;5092019;28;20448;-76
2024/01/26 11:18:57;;;;;;;3.70;1.43;;;10.60;99.90;;;;;;5093802;28;20417;-76
2024/01/26 11:21:26;;;;;;;5.13;1.33;;;10.50;99.90;;;;;;5093668;28;20503;-77
2024/01/26 11:24:12;;;;;;;3.37;1.77;;;10.50;99.90;;;;;;5093199;28;20462;-75
2024/01/26 11:26:41;;;;;;;3.10;1.67;;;10.40;99.90;;;;;;5094708;28;20420;-77
2024/01/26 11:29:13;;;;;;;3.70;1.60;;;10.30;99.90;;;;;;5093554;28;20443;-77
2024/01/26 11:31:42;;;;;;;4.97;2.23;;;10.30;99.90;;;;;;5093689;28;20425;-77
2024/01/26 11:34:18;;;;;;;2.97;1.37;;;10.20;99.90;;;;;;5093132;28;20448;-78
2024/01/26 11:36:47;;;;;;;5.93;1.70;;;10.20;99.90;;;;;;5093522;28;20423;-78
2024/01/26 11:39:20;;;;;;;3.27;1.40;;;10.10;99.90;;;;;;5097325;28;20463;-77
2024/01/26 11:41:48;;;;;;;6.43;2.37;;;10.10;99.90;;;;;;5100185;28;21000;-77
2024/01/26 11:44:20;;;;;;;5.27;1.73;;;10.00;99.90;;;;;;5101938;28;20428;-77
2024/01/26 11:46:50;;;;;;;5.53;1.93;;;9.90;99.90;;;;;;5097667;28;20451;-78
2024/01/26 11:49:18;;;;;;;7.53;2.70;;;9.90;99.90;;;;;;5096618;28;20440;-78
2024/01/26 11:51:47;;;;;;;8.00;2.17;;;9.80;99.90;;;;;;5097908;28;20455;-77
2024/01/26 11:54:17;;;;;;;6.70;1.97;;;9.80;99.90;;;;;;5099142;28;20443;-77
2024/01/26 11:56:46;;;;;;;4.67;1.50;;;9.80;99.90;;;;;;5097527;28;20452;-77
2024/01/26 11:59:14;;;;;;;9.17;2.50;;;9.70;99.90;;;;;;5096811;28;20437;-77
2024/01/26 12:01:43;;;;;;;6.10;2.57;;;9.70;99.90;;;;;;5101408;28;20444;-78
2024/01/26 12:04:11;;;;;;;6.90;2.20;;;9.70;99.90;;;;;;5100086;28;20444;-79
2024/01/26 12:06:41;;;;;;;8.57;2.50;;;9.70;99.90;;;;;;5099624;28;20448;-79
2024/01/26 12:09:12;;;;;;;11.43;2.93;;;9.70;99.90;;;;;;5098793;28;20429;-78
2024/01/26 12:11:42;;;;;;;8.10;2.83;;;9.70;99.90;;;;;;5098938;28;20485;-77
2024/01/26 12:14:10;;;;;;;9.13;3.13;;;9.60;99.90;;;;;;5096399;28;20523;-76
2024/01/26 12:16:40;;;;;;;11.60;2.93;;;9.60;99.90;;;;;;5095007;28;20799;-78
2024/01/26 12:19:08;;;;;;;11.10;4.73;;;9.60;99.90;;;;;;5096139;28;20441;-76
2024/01/26 12:21:37;;;;;;;8.47;2.50;;;9.60;99.90;;;;;;5094653;28;20448;-76
2024/01/26 12:24:11;;;;;;;9.57;2.60;;;9.60;99.90;;;;;;5095236;28;20452;-75
2024/01/26 12:26:45;;;;;;;10.63;2.73;;;9.60;99.90;;;;;;5096037;28;20424;-76
2024/01/26 12:29:13;;;;;;;10.37;2.80;;;9.60;99.90;;;;;;5095743;28;20452;-76
2024/01/26 12:31:42;;;;;;;7.93;3.40;;;9.50;99.90;;;;;;5094563;28;20845;-74
2024/01/26 12:34:13;;;;;;;10.33;3.47;;;9.50;99.90;;;;;;5094460;28;20961;-75
2024/01/26 12:36:41;;;;;;;7.50;2.97;;;9.50;99.90;;;;;;5095565;28;20420;-76
2024/01/26 12:39:10;;;;;;;9.33;4.07;;;9.50;99.90;;;;;;5096265;28;20482;-77
2024/01/26 12:41:39;;;;;;;12.07;3.43;;;9.50;99.90;;;;;;5094407;28;20437;-76
2024/01/26 12:44:08;;;;;;;12.30;3.33;;;9.50;99.90;;;;;;5094125;28;20806;-77